首页
METAR-TAF:

METAR-TAF

机场 :

杰克逊维尔国际机场

杰克逊维尔, 佛罗里达州, 美国

纬度: 30-29-40N, 经度: 081-41-36W, 海拔: 9米

当前天气观测

该预报发布于40分钟前的13:56 UTC
风速6节,风向北转东北
温度 12°C
湿度 71%
气压 1026 hPa
能見度: 16.1公里
少量云层高于4200英尺
少量云层高于25000英尺

METAR: KJAX 231356Z 03006KT 10SM FEW042 FEW250 12/07 A3030 RMK AO2 SLP260 T01170072

时间: 09:36 (14:36 UTC)

预报

该预报发布于3小时和16分钟前的11:20 UTC
预报有效从23日的 12点(UTC)到 24日的 12点(UTC)
风速节,风向
能見度: 10公里
少量云层高于25000英尺
从 23日的 1500点(UTC)
风速5节,风向东北
能見度: 10公里
少量云层高于12000英尺
从 23日的 1800点(UTC)
风速5节,风向东转东北
能見度: 10公里
散云层高于20000英尺

TAF: KJAX 231120Z 2312/2412 00000KT P6SM FEW250 FM231500 04005KT P6SM FEW120 FM231800 07005KT P6SM SCT200

超过4000个机场的气象观测和天气预报(METAR&TAF报告)。

可查询的气象台以黄色和红色小点在地图上表示。

将鼠标移到小点上方,可查看气象台名称。

然后点击查看天气观测和预报。

如需切换地图:点击带黑十字的绿色按钮放大地图;点击带横线的绿色按钮缩小地图;或者点击绿色箭头查看邻近地区的地图。


METAR-TAF: